sensor_id;sensor_type;location;lat;lon;timestamp;P1;durP1;ratioP1;P2;durP2;ratioP2
36457;SDS011;22480;50.546;12.292;2023-02-03T00:00:38;7.30;;;5.00;;
36457;SDS011;22480;50.546;12.292;2023-02-03T00:03:04;9.48;;;4.88;;
36457;SDS011;22480;50.546;12.292;2023-02-03T00:05:30;10.15;;;5.20;;
36457;SDS011;22480;50.546;12.292;2023-02-03T00:07:58;7.63;;;4.47;;
36457;SDS011;22480;50.546;12.292;2023-02-03T00:10:24;7.47;;;4.30;;
36457;SDS011;22480;50.546;12.292;2023-02-03T00:12:50;5.75;;;4.18;;
36457;SDS011;22480;50.546;12.292;2023-02-03T00:15:17;6.53;;;4.05;;
36457;SDS011;22480;50.546;12.292;2023-02-03T00:17:43;4.95;;;3.17;;
36457;SDS011;22480;50.546;12.292;2023-02-03T00:20:09;6.85;;;3.75;;
36457;SDS011;22480;50.546;12.292;2023-02-03T00:22:36;5.75;;;3.65;;
36457;SDS011;22480;50.546;12.292;2023-02-03T00:25:02;5.75;;;3.38;;
36457;SDS011;22480;50.546;12.292;2023-02-03T00:27:28;5.95;;;3.28;;
36457;SDS011;22480;50.546;12.292;2023-02-03T00:29:53;5.35;;;3.35;;
36457;SDS011;22480;50.546;12.292;2023-02-03T00:32:19;5.18;;;3.30;;
36457;SDS011;22480;50.546;12.292;2023-02-03T00:34:45;5.65;;;3.28;;
36457;SDS011;22480;50.546;12.292;2023-02-03T00:37:11;5.07;;;3.63;;
36457;SDS011;22480;50.546;12.292;2023-02-03T00:39:37;5.00;;;3.47;;
36457;SDS011;22480;50.546;12.292;2023-02-03T00:42:04;5.25;;;3.13;;
36457;SDS011;22480;50.546;12.292;2023-02-03T00:44:30;5.20;;;3.60;;
36457;SDS011;22480;50.546;12.292;2023-02-03T00:46:56;4.93;;;3.05;;
36457;SDS011;22480;50.546;12.292;2023-02-03T00:49:22;4.82;;;3.15;;
36457;SDS011;22480;50.546;12.292;2023-02-03T00:51:48;4.88;;;3.28;;
36457;SDS011;22480;50.546;12.292;2023-02-03T00:54:14;4.33;;;3.33;;
36457;SDS011;22480;50.546;12.292;2023-02-03T00:56:40;6.07;;;4.22;;
36457;SDS011;22480;50.546;12.292;2023-02-03T00:59:06;6.43;;;3.33;;
36457;SDS011;22480;50.546;12.292;2023-02-03T01:01:35;7.13;;;4.00;;
36457;SDS011;22480;50.546;12.292;2023-02-03T01:04:01;6.18;;;3.95;;
36457;SDS011;22480;50.546;12.292;2023-02-03T01:06:27;6.55;;;4.10;;
36457;SDS011;22480;50.546;12.292;2023-02-03T01:08:53;6.90;;;4.15;;
36457;SDS011;22480;50.546;12.292;2023-02-03T01:11:20;6.85;;;4.70;;
36457;SDS011;22480;50.546;12.292;2023-02-03T01:13:48;8.40;;;4.97;;
36457;SDS011;22480;50.546;12.292;2023-02-03T01:16:16;7.20;;;4.80;;
36457;SDS011;22480;50.546;12.292;2023-02-03T01:18:43;7.68;;;5.00;;
36457;SDS011;22480;50.546;12.292;2023-02-03T01:21:11;7.97;;;5.05;;
36457;SDS011;22480;50.546;12.292;2023-02-03T01:23:38;6.68;;;4.05;;
36457;SDS011;22480;50.546;12.292;2023-02-03T01:26:05;7.47;;;4.50;;
36457;SDS011;22480;50.546;12.292;2023-02-03T01:28:33;6.43;;;4.38;;
36457;SDS011;22480;50.546;12.292;2023-02-03T01:31:12;5.78;;;3.95;;
36457;SDS011;22480;50.546;12.292;2023-02-03T01:33:40;6.30;;;4.18;;
36457;SDS011;22480;50.546;12.292;2023-02-03T01:36:07;6.80;;;4.30;;
36457;SDS011;22480;50.546;12.292;2023-02-03T01:38:33;5.90;;;4.22;;
36457;SDS011;22480;50.546;12.292;2023-02-03T01:40:59;8.57;;;4.75;;
36457;SDS011;22480;50.546;12.292;2023-02-03T01:43:32;8.35;;;4.78;;
36457;SDS011;22480;50.546;12.292;2023-02-03T01:46:06;7.15;;;4.25;;
36457;SDS011;22480;50.546;12.292;2023-02-03T01:48:52;7.25;;;4.50;;
36457;SDS011;22480;50.546;12.292;2023-02-03T01:51:22;5.97;;;4.00;;
36457;SDS011;22480;50.546;12.292;2023-02-03T01:53:49;5.90;;;4.00;;
36457;SDS011;22480;50.546;12.292;2023-02-03T01:56:16;6.35;;;4.50;;
36457;SDS011;22480;50.546;12.292;2023-02-03T01:58:42;5.50;;;3.88;;
36457;SDS011;22480;50.546;12.292;2023-02-03T02:01:11;7.85;;;4.18;;
36457;SDS011;22480;50.546;12.292;2023-02-03T02:03:39;4.70;;;3.58;;
36457;SDS011;22480;50.546;12.292;2023-02-03T02:06:18;7.18;;;4.07;;
36457;SDS011;22480;50.546;12.292;2023-02-03T02:08:45;6.95;;;4.82;;
36457;SDS011;22480;50.546;12.292;2023-02-03T02:11:13;5.80;;;4.25;;
36457;SDS011;22480;50.546;12.292;2023-02-03T02:13:39;7.38;;;4.40;;
36457;SDS011;22480;50.546;12.292;2023-02-03T02:24:21;6.45;;;5.10;;
36457;SDS011;22480;50.546;12.292;2023-02-03T02:40:56;7.30;;;5.43;;
36457;SDS011;22480;50.546;12.292;2023-02-03T02:43:18;9.38;;;6.18;;
36457;SDS011;22480;50.546;12.292;2023-02-03T02:45:51;9.32;;;6.72;;
36457;SDS011;22480;50.546;12.292;2023-02-03T02:48:27;9.98;;;6.82;;
36457;SDS011;22480;50.546;12.292;2023-02-03T02:50:59;8.43;;;5.45;;
36457;SDS011;22480;50.546;12.292;2023-02-03T02:53:28;10.15;;;6.47;;
36457;SDS011;22480;50.546;12.292;2023-02-03T02:56:00;12.07;;;6.85;;
36457;SDS011;22480;50.546;12.292;2023-02-03T02:58:32;11.35;;;5.82;;
36457;SDS011;22480;50.546;12.292;2023-02-03T03:01:01;8.80;;;5.50;;
36457;SDS011;22480;50.546;12.292;2023-02-03T03:03:28;10.45;;;6.13;;
36457;SDS011;22480;50.546;12.292;2023-02-03T03:05:54;10.45;;;6.43;;
36457;SDS011;22480;50.546;12.292;2023-02-03T03:11:14;11.07;;;7.00;;
36457;SDS011;22480;50.546;12.292;2023-02-03T03:13:43;10.32;;;5.53;;
36457;SDS011;22480;50.546;12.292;2023-02-03T03:16:14;9.93;;;6.78;;
36457;SDS011;22480;50.546;12.292;2023-02-03T03:18:43;9.75;;;6.22;;
36457;SDS011;22480;50.546;12.292;2023-02-03T03:21:15;10.00;;;6.32;;
36457;SDS011;22480;50.546;12.292;2023-02-03T03:23:46;12.25;;;7.10;;
36457;SDS011;22480;50.546;12.292;2023-02-03T03:26:18;10.38;;;6.05;;
36457;SDS011;22480;50.546;12.292;2023-02-03T03:29:02;12.25;;;7.07;;
36457;SDS011;22480;50.546;12.292;2023-02-03T03:31:43;11.05;;;7.15;;
36457;SDS011;22480;50.546;12.292;2023-02-03T03:34:10;11.52;;;7.07;;
36457;SDS011;22480;50.546;12.292;2023-02-03T03:41:56;15.05;;;8.27;;
36457;SDS011;22480;50.546;12.292;2023-02-03T03:44:34;13.43;;;8.48;;
36457;SDS011;22480;50.546;12.292;2023-02-03T03:47:18;15.82;;;9.50;;
36457;SDS011;22480;50.546;12.292;2023-02-03T03:49:54;15.55;;;9.95;;
36457;SDS011;22480;50.546;12.292;2023-02-03T03:52:25;17.10;;;9.77;;
36457;SDS011;22480;50.546;12.292;2023-02-03T03:54:55;15.85;;;10.23;;
36457;SDS011;22480;50.546;12.292;2023-02-03T03:57:24;17.42;;;10.48;;
36457;SDS011;22480;50.546;12.292;2023-02-03T03:59:58;19.33;;;10.57;;
36457;SDS011;22480;50.546;12.292;2023-02-03T04:02:37;19.15;;;10.65;;
36457;SDS011;22480;50.546;12.292;2023-02-03T04:05:05;15.43;;;10.27;;
36457;SDS011;22480;50.546;12.292;2023-02-03T04:07:43;13.57;;;9.50;;
36457;SDS011;22480;50.546;12.292;2023-02-03T04:13:05;14.70;;;9.45;;
36457;SDS011;22480;50.546;12.292;2023-02-03T04:15:31;17.98;;;9.57;;
36457;SDS011;22480;50.546;12.292;2023-02-03T04:17:58;18.40;;;8.90;;
36457;SDS011;22480;50.546;12.292;2023-02-03T04:20:25;16.67;;;9.93;;
36457;SDS011;22480;50.546;12.292;2023-02-03T04:22:52;15.93;;;10.55;;
36457;SDS011;22480;50.546;12.292;2023-02-03T04:25:18;16.30;;;10.32;;
36457;SDS011;22480;50.546;12.292;2023-02-03T04:27:44;14.35;;;9.93;;
36457;SDS011;22480;50.546;12.292;2023-02-03T04:30:10;14.40;;;9.90;;
36457;SDS011;22480;50.546;12.292;2023-02-03T04:32:36;16.48;;;10.23;;
36457;SDS011;22480;50.546;12.292;2023-02-03T04:35:06;18.17;;;10.63;;
36457;SDS011;22480;50.546;12.292;2023-02-03T04:37:32;13.25;;;9.23;;
36457;SDS011;22480;50.546;12.292;2023-02-03T04:39:58;17.60;;;9.43;;
36457;SDS011;22480;50.546;12.292;2023-02-03T04:42:24;15.85;;;10.10;;
36457;SDS011;22480;50.546;12.292;2023-02-03T04:44:50;16.48;;;11.30;;
36457;SDS011;22480;50.546;12.292;2023-02-03T04:47:17;18.13;;;11.15;;
36457;SDS011;22480;50.546;12.292;2023-02-03T04:49:43;17.90;;;10.90;;
36457;SDS011;22480;50.546;12.292;2023-02-03T04:52:09;15.90;;;10.45;;
36457;SDS011;22480;50.546;12.292;2023-02-03T04:54:35;15.52;;;10.65;;
36457;SDS011;22480;50.546;12.292;2023-02-03T04:57:01;15.95;;;9.90;;
36457;SDS011;22480;50.546;12.292;2023-02-03T04:59:27;16.05;;;10.95;;
36457;SDS011;22480;50.546;12.292;2023-02-03T05:01:53;16.02;;;11.02;;
36457;SDS011;22480;50.546;12.292;2023-02-03T05:04:19;15.32;;;10.25;;
36457;SDS011;22480;50.546;12.292;2023-02-03T05:06:45;15.68;;;10.85;;
36457;SDS011;22480;50.546;12.292;2023-02-03T05:09:11;18.05;;;10.27;;
36457;SDS011;22480;50.546;12.292;2023-02-03T05:11:37;17.75;;;10.40;;
36457;SDS011;22480;50.546;12.292;2023-02-03T05:14:02;15.18;;;10.38;;
36457;SDS011;22480;50.546;12.292;2023-02-03T05:16:28;13.70;;;9.65;;
36457;SDS011;22480;50.546;12.292;2023-02-03T05:18:54;16.90;;;10.52;;
36457;SDS011;22480;50.546;12.292;2023-02-03T05:21:20;13.95;;;9.93;;
36457;SDS011;22480;50.546;12.292;2023-02-03T05:23:45;11.82;;;9.88;;
36457;SDS011;22480;50.546;12.292;2023-02-03T05:26:11;12.02;;;8.65;;
36457;SDS011;22480;50.546;12.292;2023-02-03T05:28:37;14.70;;;8.95;;
36457;SDS011;22480;50.546;12.292;2023-02-03T05:31:03;12.52;;;9.00;;
36457;SDS011;22480;50.546;12.292;2023-02-03T05:33:29;10.50;;;8.02;;
36457;SDS011;22480;50.546;12.292;2023-02-03T05:35:55;16.02;;;7.80;;
36457;SDS011;22480;50.546;12.292;2023-02-03T05:38:21;8.80;;;6.72;;
36457;SDS011;22480;50.546;12.292;2023-02-03T05:40:47;9.63;;;6.40;;
36457;SDS011;22480;50.546;12.292;2023-02-03T05:43:32;9.57;;;6.68;;
36457;SDS011;22480;50.546;12.292;2023-02-03T05:46:01;7.50;;;5.82;;
36457;SDS011;22480;50.546;12.292;2023-02-03T05:48:31;9.65;;;6.00;;
36457;SDS011;22480;50.546;12.292;2023-02-03T05:50:57;10.82;;;6.18;;
36457;SDS011;22480;50.546;12.292;2023-02-03T05:53:23;6.47;;;4.53;;
36457;SDS011;22480;50.546;12.292;2023-02-03T05:55:50;8.32;;;5.63;;
36457;SDS011;22480;50.546;12.292;2023-02-03T05:58:16;7.35;;;4.82;;
36457;SDS011;22480;50.546;12.292;2023-02-03T06:00:41;7.60;;;4.70;;
36457;SDS011;22480;50.546;12.292;2023-02-03T06:03:07;8.32;;;5.13;;
36457;SDS011;22480;50.546;12.292;2023-02-03T06:05:33;5.35;;;4.30;;
36457;SDS011;22480;50.546;12.292;2023-02-03T06:08:01;5.03;;;3.60;;
36457;SDS011;22480;50.546;12.292;2023-02-03T06:10:27;6.32;;;4.07;;
36457;SDS011;22480;50.546;12.292;2023-02-03T06:12:53;3.90;;;3.22;;
36457;SDS011;22480;50.546;12.292;2023-02-03T06:15:19;4.53;;;3.10;;
36457;SDS011;22480;50.546;12.292;2023-02-03T06:17:45;4.05;;;2.83;;
36457;SDS011;22480;50.546;12.292;2023-02-03T06:20:13;6.70;;;3.33;;
36457;SDS011;22480;50.546;12.292;2023-02-03T06:22:40;3.42;;;2.53;;
36457;SDS011;22480;50.546;12.292;2023-02-03T06:25:07;2.85;;;2.20;;
36457;SDS011;22480;50.546;12.292;2023-02-03T06:27:33;2.70;;;2.17;;
36457;SDS011;22480;50.546;12.292;2023-02-03T06:29:59;4.50;;;2.30;;
36457;SDS011;22480;50.546;12.292;2023-02-03T06:32:24;3.00;;;2.22;;
36457;SDS011;22480;50.546;12.292;2023-02-03T06:34:50;3.50;;;2.40;;
36457;SDS011;22480;50.546;12.292;2023-02-03T06:37:16;4.82;;;2.55;;
36457;SDS011;22480;50.546;12.292;2023-02-03T06:39:42;3.35;;;2.42;;
36457;SDS011;22480;50.546;12.292;2023-02-03T06:42:08;3.20;;;2.17;;
36457;SDS011;22480;50.546;12.292;2023-02-03T06:44:33;3.35;;;2.53;;
36457;SDS011;22480;50.546;12.292;2023-02-03T06:46:59;3.08;;;2.50;;
36457;SDS011;22480;50.546;12.292;2023-02-03T06:49:27;4.65;;;2.75;;
36457;SDS011;22480;50.546;12.292;2023-02-03T06:51:53;4.28;;;2.60;;
36457;SDS011;22480;50.546;12.292;2023-02-03T06:54:19;3.20;;;2.20;;
36457;SDS011;22480;50.546;12.292;2023-02-03T06:56:44;4.28;;;2.75;;
36457;SDS011;22480;50.546;12.292;2023-02-03T06:59:11;3.67;;;2.40;;
36457;SDS011;22480;50.546;12.292;2023-02-03T07:01:37;3.28;;;2.67;;
36457;SDS011;22480;50.546;12.292;2023-02-03T07:04:03;2.85;;;2.50;;
36457;SDS011;22480;50.546;12.292;2023-02-03T07:06:29;2.47;;;2.15;;
36457;SDS011;22480;50.546;12.292;2023-02-03T07:08:58;3.17;;;2.33;;
36457;SDS011;22480;50.546;12.292;2023-02-03T07:11:25;3.78;;;2.85;;
36457;SDS011;22480;50.546;12.292;2023-02-03T07:13:51;3.47;;;2.67;;
36457;SDS011;22480;50.546;12.292;2023-02-03T07:16:18;3.85;;;2.35;;
36457;SDS011;22480;50.546;12.292;2023-02-03T07:18:43;4.03;;;2.80;;
36457;SDS011;22480;50.546;12.292;2023-02-03T07:21:10;6.60;;;2.88;;
36457;SDS011;22480;50.546;12.292;2023-02-03T07:23:36;3.78;;;2.55;;
36457;SDS011;22480;50.546;12.292;2023-02-03T07:26:03;3.20;;;2.33;;
36457;SDS011;22480;50.546;12.292;2023-02-03T07:28:32;3.15;;;2.53;;
36457;SDS011;22480;50.546;12.292;2023-02-03T07:30:58;6.28;;;4.50;;
36457;SDS011;22480;50.546;12.292;2023-02-03T07:33:25;9.55;;;4.55;;
36457;SDS011;22480;50.546;12.292;2023-02-03T07:35:52;4.50;;;2.88;;
36457;SDS011;22480;50.546;12.292;2023-02-03T07:38:22;5.53;;;4.32;;
36457;SDS011;22480;50.546;12.292;2023-02-03T07:40:49;4.80;;;3.33;;
36457;SDS011;22480;50.546;12.292;2023-02-03T07:43:15;5.13;;;3.47;;
36457;SDS011;22480;50.546;12.292;2023-02-03T07:45:40;4.55;;;3.20;;
36457;SDS011;22480;50.546;12.292;2023-02-03T07:48:06;4.50;;;3.40;;
36457;SDS011;22480;50.546;12.292;2023-02-03T07:50:32;4.07;;;3.03;;
36457;SDS011;22480;50.546;12.292;2023-02-03T07:52:58;6.47;;;3.28;;
36457;SDS011;22480;50.546;12.292;2023-02-03T07:55:25;3.45;;;2.72;;
36457;SDS011;22480;50.546;12.292;2023-02-03T07:57:57;3.70;;;3.20;;
36457;SDS011;22480;50.546;12.292;2023-02-03T08:00:23;3.28;;;2.70;;
36457;SDS011;22480;50.546;12.292;2023-02-03T08:02:49;5.00;;;3.33;;
36457;SDS011;22480;50.546;12.292;2023-02-03T08:05:15;4.38;;;2.53;;
36457;SDS011;22480;50.546;12.292;2023-02-03T08:07:42;2.92;;;2.47;;
36457;SDS011;22480;50.546;12.292;2023-02-03T08:10:09;3.85;;;3.03;;
36457;SDS011;22480;50.546;12.292;2023-02-03T08:12:36;4.35;;;2.95;;
36457;SDS011;22480;50.546;12.292;2023-02-03T08:15:02;3.10;;;2.78;;
36457;SDS011;22480;50.546;12.292;2023-02-03T08:17:28;2.65;;;2.10;;
36457;SDS011;22480;50.546;12.292;2023-02-03T08:19:54;3.47;;;2.63;;
36457;SDS011;22480;50.546;12.292;2023-02-03T08:22:19;4.13;;;2.67;;
36457;SDS011;22480;50.546;12.292;2023-02-03T08:24:45;4.32;;;2.58;;
36457;SDS011;22480;50.546;12.292;2023-02-03T08:27:12;2.88;;;2.28;;
36457;SDS011;22480;50.546;12.292;2023-02-03T08:29:39;4.10;;;3.35;;
36457;SDS011;22480;50.546;12.292;2023-02-03T08:32:07;4.30;;;2.40;;
36457;SDS011;22480;50.546;12.292;2023-02-03T08:34:34;3.88;;;2.72;;
36457;SDS011;22480;50.546;12.292;2023-02-03T08:37:00;5.80;;;3.28;;
36457;SDS011;22480;50.546;12.292;2023-02-03T08:39:26;3.50;;;2.90;;
36457;SDS011;22480;50.546;12.292;2023-02-03T08:41:52;3.78;;;2.78;;
36457;SDS011;22480;50.546;12.292;2023-02-03T08:44:17;4.10;;;2.63;;
36457;SDS011;22480;50.546;12.292;2023-02-03T08:46:44;4.45;;;3.42;;
36457;SDS011;22480;50.546;12.292;2023-02-03T08:51:39;4.30;;;3.05;;
36457;SDS011;22480;50.546;12.292;2023-02-03T08:54:05;4.68;;;3.50;;
36457;SDS011;22480;50.546;12.292;2023-02-03T08:56:31;3.70;;;2.80;;
36457;SDS011;22480;50.546;12.292;2023-02-03T08:58:58;3.83;;;3.17;;
36457;SDS011;22480;50.546;12.292;2023-02-03T09:01:24;3.47;;;2.75;;
36457;SDS011;22480;50.546;12.292;2023-02-03T09:03:50;4.13;;;3.40;;
36457;SDS011;22480;50.546;12.292;2023-02-03T09:06:15;4.32;;;3.45;;
36457;SDS011;22480;50.546;12.292;2023-02-03T09:08:42;4.85;;;3.55;;
36457;SDS011;22480;50.546;12.292;2023-02-03T09:11:10;6.55;;;3.50;;
36457;SDS011;22480;50.546;12.292;2023-02-03T09:13:38;4.60;;;3.50;;
36457;SDS011;22480;50.546;12.292;2023-02-03T09:16:07;6.07;;;3.60;;
36457;SDS011;22480;50.546;12.292;2023-02-03T09:18:33;4.82;;;3.55;;
36457;SDS011;22480;50.546;12.292;2023-02-03T09:21:00;8.40;;;5.15;;
36457;SDS011;22480;50.546;12.292;2023-02-03T09:23:32;5.57;;;3.67;;
36457;SDS011;22480;50.546;12.292;2023-02-03T09:26:02;6.25;;;5.03;;
36457;SDS011;22480;50.546;12.292;2023-02-03T09:28:31;7.55;;;3.50;;
36457;SDS011;22480;50.546;12.292;2023-02-03T09:30:58;5.70;;;4.25;;
36457;SDS011;22480;50.546;12.292;2023-02-03T09:33:25;7.18;;;3.78;;
36457;SDS011;22480;50.546;12.292;2023-02-03T09:35:54;5.25;;;3.70;;
36457;SDS011;22480;50.546;12.292;2023-02-03T09:38:21;6.15;;;3.63;;
36457;SDS011;22480;50.546;12.292;2023-02-03T09:40:54;4.38;;;3.13;;
36457;SDS011;22480;50.546;12.292;2023-02-03T09:43:29;8.15;;;4.55;;
36457;SDS011;22480;50.546;12.292;2023-02-03T09:46:00;5.88;;;3.30;;
36457;SDS011;22480;50.546;12.292;2023-02-03T09:48:47;6.20;;;3.35;;
36457;SDS011;22480;50.546;12.292;2023-02-03T09:51:28;4.57;;;3.08;;
36457;SDS011;22480;50.546;12.292;2023-02-03T09:56:36;3.90;;;2.85;;
36457;SDS011;22480;50.546;12.292;2023-02-03T09:59:04;4.28;;;2.78;;
36457;SDS011;22480;50.546;12.292;2023-02-03T10:01:44;4.03;;;2.47;;
36457;SDS011;22480;50.546;12.292;2023-02-03T10:04:40;4.57;;;2.63;;
36457;SDS011;22480;50.546;12.292;2023-02-03T10:07:16;3.72;;;2.95;;
36457;SDS011;22480;50.546;12.292;2023-02-03T10:12:52;4.43;;;3.00;;
36457;SDS011;22480;50.546;12.292;2023-02-03T10:18:37;4.20;;;3.78;;
36457;SDS011;22480;50.546;12.292;2023-02-03T10:23:40;5.88;;;5.22;;
36457;SDS011;22480;50.546;12.292;2023-02-03T10:26:11;6.30;;;2.30;;
36457;SDS011;22480;50.546;12.292;2023-02-03T10:28:44;3.65;;;2.05;;
36457;SDS011;22480;50.546;12.292;2023-02-03T10:31:21;4.95;;;1.98;;
36457;SDS011;22480;50.546;12.292;2023-02-03T10:34:10;2.83;;;2.20;;
36457;SDS011;22480;50.546;12.292;2023-02-03T10:42:22;1.80;;;1.63;;
36457;SDS011;22480;50.546;12.292;2023-02-03T10:44:51;2.85;;;1.65;;
36457;SDS011;22480;50.546;12.292;2023-02-03T10:47:22;2.63;;;1.77;;
36457;SDS011;22480;50.546;12.292;2023-02-03T10:49:52;1.98;;;1.75;;
36457;SDS011;22480;50.546;12.292;2023-02-03T10:52:24;1.75;;;1.25;;
36457;SDS011;22480;50.546;12.292;2023-02-03T10:55:27;1.50;;;1.25;;
36457;SDS011;22480;50.546;12.292;2023-02-03T10:57:50;2.85;;;1.50;;
36457;SDS011;22480;50.546;12.292;2023-02-03T11:02:53;2.63;;;1.60;;
36457;SDS011;22480;50.546;12.292;2023-02-03T11:05:25;1.10;;;0.88;;
36457;SDS011;22480;50.546;12.292;2023-02-03T11:07:51;1.40;;;1.05;;
36457;SDS011;22480;50.546;12.292;2023-02-03T11:15:34;1.92;;;0.90;;
36457;SDS011;22480;50.546;12.292;2023-02-03T11:18:00;4.68;;;2.17;;
36457;SDS011;22480;50.546;12.292;2023-02-03T11:20:26;1.05;;;0.85;;
36457;SDS011;22480;50.546;12.292;2023-02-03T11:22:53;4.50;;;4.00;;
36457;SDS011;22480;50.546;12.292;2023-02-03T11:25:22;1.30;;;0.90;;
36457;SDS011;22480;50.546;12.292;2023-02-03T11:27:54;1.30;;;1.08;;
36457;SDS011;22480;50.546;12.292;2023-02-03T11:30:25;1.40;;;0.95;;
36457;SDS011;22480;50.546;12.292;2023-02-03T11:32:54;3.03;;;0.80;;
36457;SDS011;22480;50.546;12.292;2023-02-03T11:35:24;1.33;;;1.00;;
36457;SDS011;22480;50.546;12.292;2023-02-03T11:37:57;0.98;;;0.80;;
36457;SDS011;22480;50.546;12.292;2023-02-03T11:40:28;0.52;;;0.52;;
36457;SDS011;22480;50.546;12.292;2023-02-03T11:48:01;1.13;;;1.00;;
36457;SDS011;22480;50.546;12.292;2023-02-03T12:04:36;1.10;;;1.00;;
36457;SDS011;22480;50.546;12.292;2023-02-03T12:20:35;1.30;;;0.90;;
36457;SDS011;22480;50.546;12.292;2023-02-03T12:28:54;0.70;;;0.60;;
36457;SDS011;22480;50.546;12.292;2023-02-03T12:36:57;2.97;;;1.85;;
36457;SDS011;22480;50.546;12.292;2023-02-03T12:39:40;1.20;;;0.70;;
36457;SDS011;22480;50.546;12.292;2023-02-03T12:42:25;0.70;;;0.70;;
36457;SDS011;22480;50.546;12.292;2023-02-03T12:45:16;3.42;;;0.68;;
36457;SDS011;22480;50.546;12.292;2023-02-03T12:47:46;0.50;;;0.45;;
36457;SDS011;22480;50.546;12.292;2023-02-03T12:55:40;3.65;;;2.20;;
36457;SDS011;22480;50.546;12.292;2023-02-03T13:03:30;2.25;;;1.25;;
36457;SDS011;22480;50.546;12.292;2023-02-03T13:06:31;1.15;;;1.05;;
36457;SDS011;22480;50.546;12.292;2023-02-03T13:12:13;1.80;;;1.50;;
36457;SDS011;22480;50.546;12.292;2023-02-03T13:15:03;1.33;;;1.23;;
36457;SDS011;22480;50.546;12.292;2023-02-03T13:17:46;1.17;;;0.98;;
36457;SDS011;22480;50.546;12.292;2023-02-03T13:20:14;1.02;;;0.80;;
36457;SDS011;22480;50.546;12.292;2023-02-03T13:22:43;1.20;;;1.00;;
36457;SDS011;22480;50.546;12.292;2023-02-03T13:27:57;1.05;;;1.00;;
36457;SDS011;22480;50.546;12.292;2023-02-03T13:33:06;1.35;;;1.13;;
36457;SDS011;22480;50.546;12.292;2023-02-03T13:38:41;2.00;;;1.20;;
36457;SDS011;22480;50.546;12.292;2023-02-03T13:41:20;1.15;;;1.00;;
36457;SDS011;22480;50.546;12.292;2023-02-03T13:43:55;1.48;;;1.23;;
36457;SDS011;22480;50.546;12.292;2023-02-03T13:46:30;1.75;;;1.13;;
36457;SDS011;22480;50.546;12.292;2023-02-03T13:48:58;1.55;;;1.10;;
36457;SDS011;22480;50.546;12.292;2023-02-03T13:51:29;1.50;;;1.13;;
36457;SDS011;22480;50.546;12.292;2023-02-03T13:54:05;1.30;;;1.05;;
36457;SDS011;22480;50.546;12.292;2023-02-03T13:56:38;1.40;;;1.20;;
36457;SDS011;22480;50.546;12.292;2023-02-03T14:01:39;1.48;;;1.20;;
36457;SDS011;22480;50.546;12.292;2023-02-03T14:04:49;2.15;;;1.58;;
36457;SDS011;22480;50.546;12.292;2023-02-03T14:06:56;2.10;;;1.27;;
36457;SDS011;22480;50.546;12.292;2023-02-03T14:14:43;1.90;;;1.25;;
36457;SDS011;22480;50.546;12.292;2023-02-03T14:19:58;1.10;;;1.00;;
36457;SDS011;22480;50.546;12.292;2023-02-03T14:22:25;1.50;;;1.40;;
36457;SDS011;22480;50.546;12.292;2023-02-03T14:24:54;2.22;;;1.70;;
36457;SDS011;22480;50.546;12.292;2023-02-03T14:27:25;4.40;;;2.30;;
36457;SDS011;22480;50.546;12.292;2023-02-03T14:30:05;3.42;;;1.98;;
36457;SDS011;22480;50.546;12.292;2023-02-03T14:32:49;7.22;;;1.55;;
36457;SDS011;22480;50.546;12.292;2023-02-03T14:35:24;2.88;;;1.73;;
36457;SDS011;22480;50.546;12.292;2023-02-03T14:37:57;3.47;;;1.75;;
36457;SDS011;22480;50.546;12.292;2023-02-03T14:40:34;3.92;;;1.27;;
36457;SDS011;22480;50.546;12.292;2023-02-03T14:46:26;5.30;;;2.47;;
36457;SDS011;22480;50.546;12.292;2023-02-03T15:00:03;6.70;;;2.25;;
36457;SDS011;22480;50.546;12.292;2023-02-03T15:13:48;9.23;;;2.65;;
36457;SDS011;22480;50.546;12.292;2023-02-03T15:16:16;8.75;;;2.67;;
36457;SDS011;22480;50.546;12.292;2023-02-03T15:18:44;6.80;;;2.28;;
36457;SDS011;22480;50.546;12.292;2023-02-03T15:21:14;9.57;;;2.08;;
36457;SDS011;22480;50.546;12.292;2023-02-03T15:23:42;11.95;;;2.00;;
36457;SDS011;22480;50.546;12.292;2023-02-03T15:26:18;12.77;;;2.17;;
36457;SDS011;22480;50.546;12.292;2023-02-03T15:28:57;7.72;;;1.80;;
36457;SDS011;22480;50.546;12.292;2023-02-03T15:33:58;12.88;;;2.92;;
36457;SDS011;22480;50.546;12.292;2023-02-03T15:36:35;11.38;;;2.42;;
36457;SDS011;22480;50.546;12.292;2023-02-03T15:39:52;16.25;;;2.50;;
36457;SDS011;22480;50.546;12.292;2023-02-03T15:42:04;12.35;;;3.67;;
36457;SDS011;22480;50.546;12.292;2023-02-03T15:44:44;10.65;;;2.90;;
36457;SDS011;22480;50.546;12.292;2023-02-03T15:47:20;8.70;;;1.90;;
36457;SDS011;22480;50.546;12.292;2023-02-03T15:49:53;11.80;;;2.42;;
36457;SDS011;22480;50.546;12.292;2023-02-03T15:52:24;11.38;;;2.63;;
36457;SDS011;22480;50.546;12.292;2023-02-03T15:54:52;14.38;;;2.47;;
36457;SDS011;22480;50.546;12.292;2023-02-03T15:57:26;13.25;;;3.10;;
36457;SDS011;22480;50.546;12.292;2023-02-03T15:59:56;7.30;;;2.20;;
36457;SDS011;22480;50.546;12.292;2023-02-03T16:02:28;14.63;;;3.13;;
36457;SDS011;22480;50.546;12.292;2023-02-03T16:05:04;17.60;;;2.63;;
36457;SDS011;22480;50.546;12.292;2023-02-03T16:07:44;13.00;;;2.15;;
36457;SDS011;22480;50.546;12.292;2023-02-03T16:13:16;12.57;;;2.95;;
36457;SDS011;22480;50.546;12.292;2023-02-03T16:16:06;16.15;;;4.03;;
36457;SDS011;22480;50.546;12.292;2023-02-03T16:18:40;8.32;;;2.10;;
36457;SDS011;22480;50.546;12.292;2023-02-03T16:21:33;11.32;;;2.42;;
36457;SDS011;22480;50.546;12.292;2023-02-03T16:24:01;16.23;;;2.60;;
36457;SDS011;22480;50.546;12.292;2023-02-03T16:26:29;12.45;;;3.83;;
36457;SDS011;22480;50.546;12.292;2023-02-03T16:29:17;13.40;;;2.63;;
36457;SDS011;22480;50.546;12.292;2023-02-03T16:32:00;23.83;;;8.63;;
36457;SDS011;22480;50.546;12.292;2023-02-03T16:34:45;16.77;;;3.95;;
36457;SDS011;22480;50.546;12.292;2023-02-03T16:37:31;14.93;;;4.05;;
36457;SDS011;22480;50.546;12.292;2023-02-03T16:40:18;15.98;;;3.22;;
36457;SDS011;22480;50.546;12.292;2023-02-03T16:43:04;10.90;;;3.13;;
36457;SDS011;22480;50.546;12.292;2023-02-03T16:45:55;6.88;;;2.47;;
36457;SDS011;22480;50.546;12.292;2023-02-03T16:48:40;14.90;;;3.03;;
36457;SDS011;22480;50.546;12.292;2023-02-03T16:51:25;10.25;;;2.35;;
36457;SDS011;22480;50.546;12.292;2023-02-03T16:53:58;13.48;;;2.70;;
36457;SDS011;22480;50.546;12.292;2023-02-03T16:56:23;10.68;;;2.60;;
36457;SDS011;22480;50.546;12.292;2023-02-03T16:58:49;8.77;;;2.58;;
36457;SDS011;22480;50.546;12.292;2023-02-03T17:01:15;12.27;;;2.85;;
36457;SDS011;22480;50.546;12.292;2023-02-03T17:03:40;12.55;;;2.13;;
36457;SDS011;22480;50.546;12.292;2023-02-03T17:06:09;13.52;;;2.97;;
36457;SDS011;22480;50.546;12.292;2023-02-03T17:08:36;9.85;;;2.83;;
36457;SDS011;22480;50.546;12.292;2023-02-03T17:11:04;14.40;;;2.83;;
36457;SDS011;22480;50.546;12.292;2023-02-03T17:13:36;8.50;;;1.95;;
36457;SDS011;22480;50.546;12.292;2023-02-03T17:16:06;14.02;;;3.40;;
36457;SDS011;22480;50.546;12.292;2023-02-03T17:18:40;7.55;;;2.58;;
36457;SDS011;22480;50.546;12.292;2023-02-03T17:21:11;12.45;;;2.92;;
36457;SDS011;22480;50.546;12.292;2023-02-03T17:23:38;11.77;;;2.25;;
36457;SDS011;22480;50.546;12.292;2023-02-03T17:26:04;13.68;;;3.03;;
36457;SDS011;22480;50.546;12.292;2023-02-03T17:28:31;10.95;;;2.88;;
36457;SDS011;22480;50.546;12.292;2023-02-03T17:30:58;9.45;;;2.35;;
36457;SDS011;22480;50.546;12.292;2023-02-03T17:33:26;10.77;;;1.90;;
36457;SDS011;22480;50.546;12.292;2023-02-03T17:36:03;12.80;;;3.25;;